sensor_id;sensor_type;location;lat;lon;timestamp;P1;durP1;ratioP1;P2;durP2;ratioP2
42586;SDS011;28216;53.362;-6.288;2023-04-24T00:01:48;13.32;;;10.98;;
42586;SDS011;28216;53.362;-6.288;2023-04-24T00:04:13;13.40;;;10.73;;
42586;SDS011;28216;53.362;-6.288;2023-04-24T00:06:41;12.70;;;10.25;;
42586;SDS011;28216;53.362;-6.288;2023-04-24T00:09:07;15.57;;;11.18;;
42586;SDS011;28216;53.362;-6.288;2023-04-24T00:11:35;14.40;;;10.43;;
42586;SDS011;28216;53.362;-6.288;2023-04-24T00:14:00;12.68;;;9.95;;
42586;SDS011;28216;53.362;-6.288;2023-04-24T00:16:26;14.50;;;10.45;;
42586;SDS011;28216;53.362;-6.288;2023-04-24T00:18:51;11.43;;;10.20;;
42586;SDS011;28216;53.362;-6.288;2023-04-24T00:21:21;13.07;;;10.55;;
42586;SDS011;28216;53.362;-6.288;2023-04-24T00:23:46;13.80;;;10.98;;
42586;SDS011;28216;53.362;-6.288;2023-04-24T00:26:13;15.48;;;10.68;;
42586;SDS011;28216;53.362;-6.288;2023-04-24T00:28:38;14.02;;;10.48;;
42586;SDS011;28216;53.362;-6.288;2023-04-24T00:31:04;13.07;;;9.68;;
42586;SDS011;28216;53.362;-6.288;2023-04-24T00:33:29;15.98;;;9.70;;
42586;SDS011;28216;53.362;-6.288;2023-04-24T00:35:55;13.48;;;9.50;;
42586;SDS011;28216;53.362;-6.288;2023-04-24T00:38:20;12.90;;;9.35;;
42586;SDS011;28216;53.362;-6.288;2023-04-24T00:40:47;12.48;;;9.80;;
42586;SDS011;28216;53.362;-6.288;2023-04-24T00:43:14;11.77;;;9.32;;
42586;SDS011;28216;53.362;-6.288;2023-04-24T00:45:40;10.68;;;8.48;;
42586;SDS011;28216;53.362;-6.288;2023-04-24T00:48:06;13.15;;;7.50;;
42586;SDS011;28216;53.362;-6.288;2023-04-24T00:50:32;13.50;;;7.75;;
42586;SDS011;28216;53.362;-6.288;2023-04-24T00:52:58;14.02;;;7.38;;
42586;SDS011;28216;53.362;-6.288;2023-04-24T00:55:24;11.05;;;7.38;;
42586;SDS011;28216;53.362;-6.288;2023-04-24T00:57:50;15.63;;;7.15;;
42586;SDS011;28216;53.362;-6.288;2023-04-24T01:00:16;10.57;;;6.70;;
42586;SDS011;28216;53.362;-6.288;2023-04-24T01:02:43;13.30;;;7.22;;
42586;SDS011;28216;53.362;-6.288;2023-04-24T01:05:10;10.93;;;7.07;;
42586;SDS011;28216;53.362;-6.288;2023-04-24T01:07:37;8.52;;;6.75;;
42586;SDS011;28216;53.362;-6.288;2023-04-24T01:10:04;11.18;;;7.28;;
42586;SDS011;28216;53.362;-6.288;2023-04-24T01:12:31;13.30;;;6.82;;
42586;SDS011;28216;53.362;-6.288;2023-04-24T01:14:57;9.45;;;6.30;;
42586;SDS011;28216;53.362;-6.288;2023-04-24T01:17:23;11.23;;;6.80;;
42586;SDS011;28216;53.362;-6.288;2023-04-24T01:19:48;11.15;;;6.18;;
42586;SDS011;28216;53.362;-6.288;2023-04-24T01:22:14;8.25;;;6.15;;
42586;SDS011;28216;53.362;-6.288;2023-04-24T01:24:40;11.77;;;6.18;;
42586;SDS011;28216;53.362;-6.288;2023-04-24T01:27:07;13.50;;;6.47;;
42586;SDS011;28216;53.362;-6.288;2023-04-24T01:29:34;8.93;;;5.60;;
42586;SDS011;28216;53.362;-6.288;2023-04-24T01:32:00;10.02;;;6.05;;
42586;SDS011;28216;53.362;-6.288;2023-04-24T01:34:26;8.73;;;6.15;;
42586;SDS011;28216;53.362;-6.288;2023-04-24T01:36:51;10.95;;;6.18;;
42586;SDS011;28216;53.362;-6.288;2023-04-24T01:39:17;12.80;;;6.97;;
42586;SDS011;28216;53.362;-6.288;2023-04-24T01:41:43;10.48;;;5.85;;
42586;SDS011;28216;53.362;-6.288;2023-04-24T01:44:09;10.35;;;6.15;;
42586;SDS011;28216;53.362;-6.288;2023-04-24T01:46:34;11.23;;;6.13;;
42586;SDS011;28216;53.362;-6.288;2023-04-24T01:49:00;11.07;;;6.25;;
42586;SDS011;28216;53.362;-6.288;2023-04-24T01:51:26;10.18;;;6.30;;
42586;SDS011;28216;53.362;-6.288;2023-04-24T01:53:52;9.68;;;5.90;;
42586;SDS011;28216;53.362;-6.288;2023-04-24T01:56:19;13.10;;;6.10;;
42586;SDS011;28216;53.362;-6.288;2023-04-24T01:58:45;11.55;;;6.13;;
42586;SDS011;28216;53.362;-6.288;2023-04-24T02:01:14;11.73;;;6.10;;
42586;SDS011;28216;53.362;-6.288;2023-04-24T02:03:43;12.35;;;6.45;;
42586;SDS011;28216;53.362;-6.288;2023-04-24T02:06:08;11.10;;;6.65;;
42586;SDS011;28216;53.362;-6.288;2023-04-24T02:08:34;10.43;;;6.03;;
42586;SDS011;28216;53.362;-6.288;2023-04-24T02:10:59;14.15;;;6.68;;
42586;SDS011;28216;53.362;-6.288;2023-04-24T02:13:26;9.25;;;6.63;;
42586;SDS011;28216;53.362;-6.288;2023-04-24T02:15:52;12.13;;;6.63;;
42586;SDS011;28216;53.362;-6.288;2023-04-24T02:18:17;9.82;;;6.22;;
42586;SDS011;28216;53.362;-6.288;2023-04-24T02:20:43;10.10;;;6.47;;
42586;SDS011;28216;53.362;-6.288;2023-04-24T02:23:08;13.20;;;7.28;;
42586;SDS011;28216;53.362;-6.288;2023-04-24T02:25:34;12.52;;;6.80;;
42586;SDS011;28216;53.362;-6.288;2023-04-24T02:27:59;10.32;;;6.38;;
42586;SDS011;28216;53.362;-6.288;2023-04-24T02:30:25;10.00;;;6.75;;
42586;SDS011;28216;53.362;-6.288;2023-04-24T02:32:50;12.48;;;7.40;;
42586;SDS011;28216;53.362;-6.288;2023-04-24T02:35:16;10.60;;;6.85;;
42586;SDS011;28216;53.362;-6.288;2023-04-24T02:37:42;11.35;;;6.88;;
42586;SDS011;28216;53.362;-6.288;2023-04-24T02:40:07;13.38;;;7.05;;
42586;SDS011;28216;53.362;-6.288;2023-04-24T02:42:34;12.88;;;6.82;;
42586;SDS011;28216;53.362;-6.288;2023-04-24T02:44:59;9.20;;;6.68;;
42586;SDS011;28216;53.362;-6.288;2023-04-24T02:47:25;11.05;;;6.53;;
42586;SDS011;28216;53.362;-6.288;2023-04-24T02:49:50;13.93;;;6.72;;
42586;SDS011;28216;53.362;-6.288;2023-04-24T02:52:16;11.27;;;6.85;;
42586;SDS011;28216;53.362;-6.288;2023-04-24T02:54:42;15.88;;;7.65;;
42586;SDS011;28216;53.362;-6.288;2023-04-24T02:57:08;11.48;;;6.68;;
42586;SDS011;28216;53.362;-6.288;2023-04-24T02:59:33;12.75;;;6.88;;
42586;SDS011;28216;53.362;-6.288;2023-04-24T03:01:59;11.65;;;6.55;;
42586;SDS011;28216;53.362;-6.288;2023-04-24T03:04:24;11.43;;;7.00;;
42586;SDS011;28216;53.362;-6.288;2023-04-24T03:06:50;11.05;;;6.80;;
42586;SDS011;28216;53.362;-6.288;2023-04-24T03:09:18;10.85;;;6.82;;
42586;SDS011;28216;53.362;-6.288;2023-04-24T03:11:44;11.27;;;6.82;;
42586;SDS011;28216;53.362;-6.288;2023-04-24T03:14:09;11.77;;;7.20;;
42586;SDS011;28216;53.362;-6.288;2023-04-24T03:16:34;14.88;;;7.45;;
42586;SDS011;28216;53.362;-6.288;2023-04-24T03:19:00;11.18;;;6.68;;
42586;SDS011;28216;53.362;-6.288;2023-04-24T03:21:26;11.52;;;6.70;;
42586;SDS011;28216;53.362;-6.288;2023-04-24T03:23:51;10.75;;;6.20;;
42586;SDS011;28216;53.362;-6.288;2023-04-24T03:26:17;11.95;;;6.63;;
42586;SDS011;28216;53.362;-6.288;2023-04-24T03:28:42;13.27;;;6.28;;
42586;SDS011;28216;53.362;-6.288;2023-04-24T03:31:08;13.35;;;6.47;;
42586;SDS011;28216;53.362;-6.288;2023-04-24T03:33:33;12.90;;;6.20;;
42586;SDS011;28216;53.362;-6.288;2023-04-24T03:35:59;9.18;;;6.40;;
42586;SDS011;28216;53.362;-6.288;2023-04-24T03:38:24;12.30;;;6.40;;
42586;SDS011;28216;53.362;-6.288;2023-04-24T03:40:49;11.35;;;6.80;;
42586;SDS011;28216;53.362;-6.288;2023-04-24T03:43:15;10.13;;;6.75;;
42586;SDS011;28216;53.362;-6.288;2023-04-24T03:45:40;11.70;;;6.57;;
42586;SDS011;28216;53.362;-6.288;2023-04-24T03:48:06;13.30;;;6.75;;
42586;SDS011;28216;53.362;-6.288;2023-04-24T03:50:32;13.55;;;7.28;;
42586;SDS011;28216;53.362;-6.288;2023-04-24T03:52:58;11.93;;;7.35;;
42586;SDS011;28216;53.362;-6.288;2023-04-24T03:55:23;14.40;;;7.55;;
42586;SDS011;28216;53.362;-6.288;2023-04-24T03:57:49;11.02;;;6.93;;
42586;SDS011;28216;53.362;-6.288;2023-04-24T04:00:14;12.23;;;6.32;;
42586;SDS011;28216;53.362;-6.288;2023-04-24T04:02:40;12.13;;;7.53;;
42586;SDS011;28216;53.362;-6.288;2023-04-24T04:05:06;11.40;;;6.95;;
42586;SDS011;28216;53.362;-6.288;2023-04-24T04:07:33;11.60;;;6.18;;
42586;SDS011;28216;53.362;-6.288;2023-04-24T04:09:58;9.48;;;6.32;;
42586;SDS011;28216;53.362;-6.288;2023-04-24T04:12:24;12.10;;;5.82;;
42586;SDS011;28216;53.362;-6.288;2023-04-24T04:14:49;11.90;;;5.97;;
42586;SDS011;28216;53.362;-6.288;2023-04-24T04:17:15;7.60;;;5.15;;
42586;SDS011;28216;53.362;-6.288;2023-04-24T04:19:40;10.55;;;5.03;;
42586;SDS011;28216;53.362;-6.288;2023-04-24T04:22:07;8.60;;;4.70;;
42586;SDS011;28216;53.362;-6.288;2023-04-24T04:24:33;11.30;;;4.10;;
42586;SDS011;28216;53.362;-6.288;2023-04-24T04:27:03;7.38;;;3.95;;
42586;SDS011;28216;53.362;-6.288;2023-04-24T04:29:31;7.07;;;4.90;;
42586;SDS011;28216;53.362;-6.288;2023-04-24T04:31:58;9.10;;;4.25;;
42586;SDS011;28216;53.362;-6.288;2023-04-24T04:34:23;8.20;;;3.60;;
42586;SDS011;28216;53.362;-6.288;2023-04-24T04:36:49;8.80;;;3.85;;
42586;SDS011;28216;53.362;-6.288;2023-04-24T04:39:15;12.60;;;3.50;;
42586;SDS011;28216;53.362;-6.288;2023-04-24T04:41:41;10.43;;;3.33;;
42586;SDS011;28216;53.362;-6.288;2023-04-24T04:44:07;12.45;;;4.07;;
42586;SDS011;28216;53.362;-6.288;2023-04-24T04:46:33;14.93;;;2.88;;
42586;SDS011;28216;53.362;-6.288;2023-04-24T04:48:59;10.23;;;2.70;;
42586;SDS011;28216;53.362;-6.288;2023-04-24T04:51:26;10.73;;;3.17;;
42586;SDS011;28216;53.362;-6.288;2023-04-24T04:53:52;11.63;;;3.35;;
42586;SDS011;28216;53.362;-6.288;2023-04-24T04:56:17;16.35;;;4.05;;
42586;SDS011;28216;53.362;-6.288;2023-04-24T04:58:43;12.70;;;3.83;;
42586;SDS011;28216;53.362;-6.288;2023-04-24T05:01:08;12.82;;;3.60;;
42586;SDS011;28216;53.362;-6.288;2023-04-24T05:03:34;13.15;;;3.72;;
42586;SDS011;28216;53.362;-6.288;2023-04-24T05:06:00;12.18;;;3.20;;
42586;SDS011;28216;53.362;-6.288;2023-04-24T05:08:27;13.45;;;3.63;;
42586;SDS011;28216;53.362;-6.288;2023-04-24T05:10:52;10.55;;;3.00;;
42586;SDS011;28216;53.362;-6.288;2023-04-24T05:13:18;16.77;;;3.40;;
42586;SDS011;28216;53.362;-6.288;2023-04-24T05:15:44;10.25;;;3.05;;
42586;SDS011;28216;53.362;-6.288;2023-04-24T05:18:09;13.82;;;3.53;;
42586;SDS011;28216;53.362;-6.288;2023-04-24T05:20:35;13.30;;;3.30;;
42586;SDS011;28216;53.362;-6.288;2023-04-24T05:23:00;8.40;;;2.88;;
42586;SDS011;28216;53.362;-6.288;2023-04-24T05:25:26;11.57;;;3.33;;
42586;SDS011;28216;53.362;-6.288;2023-04-24T05:27:51;12.65;;;3.20;;
42586;SDS011;28216;53.362;-6.288;2023-04-24T05:30:18;13.20;;;3.30;;
42586;SDS011;28216;53.362;-6.288;2023-04-24T05:32:44;7.13;;;2.53;;
42586;SDS011;28216;53.362;-6.288;2023-04-24T05:35:10;18.08;;;3.22;;
42586;SDS011;28216;53.362;-6.288;2023-04-24T05:37:35;16.65;;;3.25;;
42586;SDS011;28216;53.362;-6.288;2023-04-24T05:40:01;10.07;;;2.75;;
42586;SDS011;28216;53.362;-6.288;2023-04-24T05:42:29;12.15;;;2.95;;
42586;SDS011;28216;53.362;-6.288;2023-04-24T05:44:54;9.50;;;2.40;;
42586;SDS011;28216;53.362;-6.288;2023-04-24T05:47:20;8.60;;;2.53;;
42586;SDS011;28216;53.362;-6.288;2023-04-24T05:49:47;9.23;;;2.80;;
42586;SDS011;28216;53.362;-6.288;2023-04-24T05:52:12;9.93;;;2.47;;
42586;SDS011;28216;53.362;-6.288;2023-04-24T05:54:38;14.23;;;2.85;;
42586;SDS011;28216;53.362;-6.288;2023-04-24T05:57:04;8.90;;;2.88;;
42586;SDS011;28216;53.362;-6.288;2023-04-24T05:59:33;11.35;;;3.50;;
42586;SDS011;28216;53.362;-6.288;2023-04-24T06:01:59;12.52;;;2.42;;
42586;SDS011;28216;53.362;-6.288;2023-04-24T06:04:25;11.05;;;2.53;;
42586;SDS011;28216;53.362;-6.288;2023-04-24T06:06:54;10.02;;;2.50;;
42586;SDS011;28216;53.362;-6.288;2023-04-24T06:09:36;9.35;;;2.60;;
42586;SDS011;28216;53.362;-6.288;2023-04-24T06:12:32;10.20;;;3.08;;
42586;SDS011;28216;53.362;-6.288;2023-04-24T06:15:07;9.93;;;2.90;;
42586;SDS011;28216;53.362;-6.288;2023-04-24T06:17:35;16.25;;;3.35;;
42586;SDS011;28216;53.362;-6.288;2023-04-24T06:20:03;9.55;;;3.28;;
42586;SDS011;28216;53.362;-6.288;2023-04-24T06:22:33;9.30;;;2.92;;
42586;SDS011;28216;53.362;-6.288;2023-04-24T06:24:59;9.65;;;3.90;;
42586;SDS011;28216;53.362;-6.288;2023-04-24T06:27:25;9.10;;;3.28;;
42586;SDS011;28216;53.362;-6.288;2023-04-24T06:29:51;10.55;;;3.20;;
42586;SDS011;28216;53.362;-6.288;2023-04-24T06:32:20;7.90;;;2.75;;
42586;SDS011;28216;53.362;-6.288;2023-04-24T06:34:49;6.53;;;2.85;;
42586;SDS011;28216;53.362;-6.288;2023-04-24T06:37:18;9.18;;;2.70;;
42586;SDS011;28216;53.362;-6.288;2023-04-24T06:39:46;9.05;;;2.40;;
42586;SDS011;28216;53.362;-6.288;2023-04-24T06:42:12;4.95;;;2.47;;
42586;SDS011;28216;53.362;-6.288;2023-04-24T06:44:38;3.63;;;2.00;;
42586;SDS011;28216;53.362;-6.288;2023-04-24T06:47:09;2.83;;;2.08;;
42586;SDS011;28216;53.362;-6.288;2023-04-24T06:49:36;5.72;;;1.90;;
42586;SDS011;28216;53.362;-6.288;2023-04-24T06:52:02;8.82;;;2.40;;
42586;SDS011;28216;53.362;-6.288;2023-04-24T06:54:29;8.23;;;2.22;;
42586;SDS011;28216;53.362;-6.288;2023-04-24T06:56:54;4.85;;;2.03;;
42586;SDS011;28216;53.362;-6.288;2023-04-24T06:59:31;3.47;;;1.92;;
42586;SDS011;28216;53.362;-6.288;2023-04-24T07:01:56;8.95;;;2.10;;
42586;SDS011;28216;53.362;-6.288;2023-04-24T07:04:22;3.58;;;1.50;;
42586;SDS011;28216;53.362;-6.288;2023-04-24T07:31:10;7.25;;;2.60;;
42586;SDS011;28216;53.362;-6.288;2023-04-24T07:33:36;7.40;;;2.20;;
42586;SDS011;28216;53.362;-6.288;2023-04-24T07:36:02;11.98;;;2.75;;
42586;SDS011;28216;53.362;-6.288;2023-04-24T07:38:31;9.55;;;2.50;;
42586;SDS011;28216;53.362;-6.288;2023-04-24T07:40:57;6.68;;;2.40;;
42586;SDS011;28216;53.362;-6.288;2023-04-24T07:43:22;7.00;;;2.22;;
42586;SDS011;28216;53.362;-6.288;2023-04-24T07:45:49;4.95;;;2.15;;
42586;SDS011;28216;53.362;-6.288;2023-04-24T07:48:19;5.55;;;2.60;;
42586;SDS011;28216;53.362;-6.288;2023-04-24T07:50:46;7.97;;;2.53;;
42586;SDS011;28216;53.362;-6.288;2023-04-24T07:53:11;9.60;;;2.25;;
42586;SDS011;28216;53.362;-6.288;2023-04-24T07:55:37;6.28;;;2.50;;
42586;SDS011;28216;53.362;-6.288;2023-04-24T07:58:02;4.50;;;2.00;;
42586;SDS011;28216;53.362;-6.288;2023-04-24T08:00:28;8.20;;;2.60;;
42586;SDS011;28216;53.362;-6.288;2023-04-24T08:02:54;6.90;;;2.42;;
42586;SDS011;28216;53.362;-6.288;2023-04-24T08:05:20;9.90;;;2.35;;
42586;SDS011;28216;53.362;-6.288;2023-04-24T08:07:45;6.68;;;2.60;;
42586;SDS011;28216;53.362;-6.288;2023-04-24T08:10:13;7.88;;;2.75;;
42586;SDS011;28216;53.362;-6.288;2023-04-24T08:12:39;10.05;;;2.80;;
42586;SDS011;28216;53.362;-6.288;2023-04-24T08:15:05;9.35;;;2.60;;
42586;SDS011;28216;53.362;-6.288;2023-04-24T08:17:31;9.55;;;2.47;;
42586;SDS011;28216;53.362;-6.288;2023-04-24T08:19:57;10.10;;;2.35;;
42586;SDS011;28216;53.362;-6.288;2023-04-24T08:22:26;7.40;;;2.42;;
42586;SDS011;28216;53.362;-6.288;2023-04-24T08:24:52;3.92;;;2.05;;
42586;SDS011;28216;53.362;-6.288;2023-04-24T08:27:18;7.50;;;2.10;;
42586;SDS011;28216;53.362;-6.288;2023-04-24T08:29:44;6.28;;;2.22;;
42586;SDS011;28216;53.362;-6.288;2023-04-24T08:32:09;5.45;;;1.90;;
42586;SDS011;28216;53.362;-6.288;2023-04-24T08:34:35;5.97;;;1.98;;
42586;SDS011;28216;53.362;-6.288;2023-04-24T08:37:00;6.80;;;1.95;;
42586;SDS011;28216;53.362;-6.288;2023-04-24T08:39:26;7.78;;;2.35;;
42586;SDS011;28216;53.362;-6.288;2023-04-24T08:41:52;6.28;;;2.15;;
42586;SDS011;28216;53.362;-6.288;2023-04-24T08:44:18;8.93;;;2.10;;
42586;SDS011;28216;53.362;-6.288;2023-04-24T08:46:44;6.32;;;2.05;;
42586;SDS011;28216;53.362;-6.288;2023-04-24T08:49:15;7.25;;;2.28;;
42586;SDS011;28216;53.362;-6.288;2023-04-24T08:51:44;5.93;;;2.50;;
42586;SDS011;28216;53.362;-6.288;2023-04-24T08:54:12;8.60;;;2.80;;
42586;SDS011;28216;53.362;-6.288;2023-04-24T08:56:38;5.65;;;2.00;;
42586;SDS011;28216;53.362;-6.288;2023-04-24T08:59:08;5.90;;;2.10;;
42586;SDS011;28216;53.362;-6.288;2023-04-24T09:01:34;6.15;;;2.03;;
42586;SDS011;28216;53.362;-6.288;2023-04-24T09:04:02;4.53;;;2.13;;
42586;SDS011;28216;53.362;-6.288;2023-04-24T09:06:28;5.68;;;1.98;;
42586;SDS011;28216;53.362;-6.288;2023-04-24T09:09:05;7.07;;;2.00;;
42586;SDS011;28216;53.362;-6.288;2023-04-24T09:11:31;7.90;;;2.65;;
42586;SDS011;28216;53.362;-6.288;2023-04-24T09:13:57;4.55;;;2.17;;
42586;SDS011;28216;53.362;-6.288;2023-04-24T09:16:24;6.13;;;1.90;;
42586;SDS011;28216;53.362;-6.288;2023-04-24T09:18:51;4.85;;;2.22;;
42586;SDS011;28216;53.362;-6.288;2023-04-24T09:21:17;7.07;;;2.42;;
42586;SDS011;28216;53.362;-6.288;2023-04-24T09:23:45;6.20;;;2.10;;
42586;SDS011;28216;53.362;-6.288;2023-04-24T09:26:10;7.65;;;2.63;;
42586;SDS011;28216;53.362;-6.288;2023-04-24T09:31:12;5.03;;;2.17;;
42586;SDS011;28216;53.362;-6.288;2023-04-24T09:33:40;6.20;;;2.20;;
42586;SDS011;28216;53.362;-6.288;2023-04-24T09:36:34;5.07;;;2.50;;
42586;SDS011;28216;53.362;-6.288;2023-04-24T09:39:04;4.60;;;2.92;;
42586;SDS011;28216;53.362;-6.288;2023-04-24T09:41:33;6.93;;;2.50;;
42586;SDS011;28216;53.362;-6.288;2023-04-24T09:44:12;6.30;;;2.70;;
42586;SDS011;28216;53.362;-6.288;2023-04-24T09:46:40;6.28;;;2.35;;
42586;SDS011;28216;53.362;-6.288;2023-04-24T09:49:10;5.60;;;2.10;;
42586;SDS011;28216;53.362;-6.288;2023-04-24T09:51:38;7.85;;;2.25;;
42586;SDS011;28216;53.362;-6.288;2023-04-24T09:54:04;5.03;;;2.17;;
42586;SDS011;28216;53.362;-6.288;2023-04-24T09:56:40;4.63;;;2.10;;
42586;SDS011;28216;53.362;-6.288;2023-04-24T09:59:07;7.20;;;2.10;;
42586;SDS011;28216;53.362;-6.288;2023-04-24T10:01:33;5.07;;;2.00;;
42586;SDS011;28216;53.362;-6.288;2023-04-24T10:03:59;8.30;;;2.05;;
42586;SDS011;28216;53.362;-6.288;2023-04-24T10:06:35;8.15;;;2.38;;
42586;SDS011;28216;53.362;-6.288;2023-04-24T10:11:28;6.25;;;2.33;;
42586;SDS011;28216;53.362;-6.288;2023-04-24T10:13:55;5.47;;;2.60;;
42586;SDS011;28216;53.362;-6.288;2023-04-24T10:16:22;31.48;;;15.13;;
42586;SDS011;28216;53.362;-6.288;2023-04-24T10:18:48;9.07;;;3.58;;
42586;SDS011;28216;53.362;-6.288;2023-04-24T10:21:14;13.70;;;5.00;;
42586;SDS011;28216;53.362;-6.288;2023-04-24T10:23:42;9.75;;;2.90;;
42586;SDS011;28216;53.362;-6.288;2023-04-24T10:26:12;8.77;;;2.45;;
42586;SDS011;28216;53.362;-6.288;2023-04-24T10:28:44;5.63;;;2.08;;
42586;SDS011;28216;53.362;-6.288;2023-04-24T10:31:10;6.55;;;2.20;;
42586;SDS011;28216;53.362;-6.288;2023-04-24T10:33:38;6.13;;;2.08;;
42586;SDS011;28216;53.362;-6.288;2023-04-24T10:36:06;7.55;;;2.00;;
42586;SDS011;28216;53.362;-6.288;2023-04-24T10:38:37;9.75;;;2.38;;
42586;SDS011;28216;53.362;-6.288;2023-04-24T10:41:10;6.10;;;2.58;;
42586;SDS011;28216;53.362;-6.288;2023-04-24T10:44:00;6.35;;;2.20;;
42586;SDS011;28216;53.362;-6.288;2023-04-24T10:46:32;6.18;;;2.20;;
42586;SDS011;28216;53.362;-6.288;2023-04-24T10:48:58;8.60;;;2.30;;
42586;SDS011;28216;53.362;-6.288;2023-04-24T10:54:25;5.55;;;2.30;;
42586;SDS011;28216;53.362;-6.288;2023-04-24T10:59:49;8.13;;;2.20;;
42586;SDS011;28216;53.362;-6.288;2023-04-24T11:02:16;9.02;;;2.45;;
42586;SDS011;28216;53.362;-6.288;2023-04-24T11:04:43;6.50;;;2.13;;
42586;SDS011;28216;53.362;-6.288;2023-04-24T11:07:10;9.32;;;2.58;;
42586;SDS011;28216;53.362;-6.288;2023-04-24T11:09:36;9.30;;;2.30;;
42586;SDS011;28216;53.362;-6.288;2023-04-24T11:12:06;6.65;;;2.10;;
42586;SDS011;28216;53.362;-6.288;2023-04-24T11:17:30;7.07;;;3.00;;
42586;SDS011;28216;53.362;-6.288;2023-04-24T11:22:36;20.17;;;14.32;;
42586;SDS011;28216;53.362;-6.288;2023-04-24T11:25:07;11.98;;;3.70;;
42586;SDS011;28216;53.362;-6.288;2023-04-24T11:27:44;23.42;;;15.32;;
42586;SDS011;28216;53.362;-6.288;2023-04-24T11:30:11;35.92;;;21.42;;
42586;SDS011;28216;53.362;-6.288;2023-04-24T11:32:38;14.65;;;8.18;;
42586;SDS011;28216;53.362;-6.288;2023-04-24T11:35:17;21.95;;;15.32;;
42586;SDS011;28216;53.362;-6.288;2023-04-24T11:37:46;13.40;;;8.68;;
42586;SDS011;28216;53.362;-6.288;2023-04-24T11:40:17;8.98;;;4.05;;
42586;SDS011;28216;53.362;-6.288;2023-04-24T11:42:48;11.82;;;3.83;;
42586;SDS011;28216;53.362;-6.288;2023-04-24T11:45:18;5.95;;;2.17;;
42586;SDS011;28216;53.362;-6.288;2023-04-24T11:47:47;7.75;;;2.55;;
42586;SDS011;28216;53.362;-6.288;2023-04-24T11:50:13;8.23;;;3.13;;
42586;SDS011;28216;53.362;-6.288;2023-04-24T11:52:41;8.88;;;2.83;;
42586;SDS011;28216;53.362;-6.288;2023-04-24T11:55:28;8.40;;;3.85;;
42586;SDS011;28216;53.362;-6.288;2023-04-24T12:00:28;6.60;;;2.15;;
42586;SDS011;28216;53.362;-6.288;2023-04-24T12:03:11;6.65;;;1.90;;
42586;SDS011;28216;53.362;-6.288;2023-04-24T12:05:37;6.57;;;1.98;;
42586;SDS011;28216;53.362;-6.288;2023-04-24T12:08:04;6.68;;;2.38;;
42586;SDS011;28216;53.362;-6.288;2023-04-24T12:10:30;6.72;;;2.13;;
42586;SDS011;28216;53.362;-6.288;2023-04-24T12:12:57;6.82;;;2.53;;
42586;SDS011;28216;53.362;-6.288;2023-04-24T12:15:24;5.63;;;1.88;;
42586;SDS011;28216;53.362;-6.288;2023-04-24T12:17:50;7.95;;;2.00;;
42586;SDS011;28216;53.362;-6.288;2023-04-24T12:20:17;8.93;;;2.13;;
42586;SDS011;28216;53.362;-6.288;2023-04-24T12:25:22;9.10;;;2.15;;
42586;SDS011;28216;53.362;-6.288;2023-04-24T12:27:55;8.55;;;4.15;;
42586;SDS011;28216;53.362;-6.288;2023-04-24T12:30:41;6.32;;;2.60;;
42586;SDS011;28216;53.362;-6.288;2023-04-24T12:33:11;6.05;;;2.45;;
42586;SDS011;28216;53.362;-6.288;2023-04-24T12:35:36;10.35;;;2.10;;
42586;SDS011;28216;53.362;-6.288;2023-04-24T12:38:09;7.60;;;2.20;;
42586;SDS011;28216;53.362;-6.288;2023-04-24T12:40:36;6.75;;;2.20;;
42586;SDS011;28216;53.362;-6.288;2023-04-24T12:43:02;9.27;;;2.50;;
42586;SDS011;28216;53.362;-6.288;2023-04-24T12:48:02;9.00;;;2.63;;
42586;SDS011;28216;53.362;-6.288;2023-04-24T12:50:28;8.90;;;3.42;;
42586;SDS011;28216;53.362;-6.288;2023-04-24T12:52:53;11.60;;;3.95;;
42586;SDS011;28216;53.362;-6.288;2023-04-24T12:55:19;9.52;;;2.30;;
42586;SDS011;28216;53.362;-6.288;2023-04-24T12:57:44;8.98;;;2.53;;
42586;SDS011;28216;53.362;-6.288;2023-04-24T13:00:10;6.32;;;2.22;;
42586;SDS011;28216;53.362;-6.288;2023-04-24T13:02:36;15.57;;;6.13;;
42586;SDS011;28216;53.362;-6.288;2023-04-24T13:05:01;4.00;;;1.85;;
42586;SDS011;28216;53.362;-6.288;2023-04-24T13:07:27;6.80;;;2.00;;
42586;SDS011;28216;53.362;-6.288;2023-04-24T13:09:53;6.13;;;3.17;;
42586;SDS011;28216;53.362;-6.288;2023-04-24T13:12:20;4.85;;;1.80;;
42586;SDS011;28216;53.362;-6.288;2023-04-24T13:14:46;5.65;;;2.00;;
42586;SDS011;28216;53.362;-6.288;2023-04-24T13:17:12;6.68;;;2.17;;
42586;SDS011;28216;53.362;-6.288;2023-04-24T13:19:41;6.43;;;2.50;;
42586;SDS011;28216;53.362;-6.288;2023-04-24T13:22:08;7.00;;;2.80;;
42586;SDS011;28216;53.362;-6.288;2023-04-24T13:24:35;5.50;;;2.08;;
42586;SDS011;28216;53.362;-6.288;2023-04-24T13:27:00;10.07;;;2.25;;
42586;SDS011;28216;53.362;-6.288;2023-04-24T13:29:27;6.25;;;2.67;;
42586;SDS011;28216;53.362;-6.288;2023-04-24T13:31:54;7.47;;;2.08;;
42586;SDS011;28216;53.362;-6.288;2023-04-24T13:34:20;6.82;;;2.42;;
42586;SDS011;28216;53.362;-6.288;2023-04-24T13:36:46;5.22;;;1.95;;
42586;SDS011;28216;53.362;-6.288;2023-04-24T13:39:12;3.45;;;1.73;;
42586;SDS011;28216;53.362;-6.288;2023-04-24T13:41:37;6.53;;;2.00;;
42586;SDS011;28216;53.362;-6.288;2023-04-24T13:44:03;6.30;;;2.03;;
42586;SDS011;28216;53.362;-6.288;2023-04-24T13:46:29;9.82;;;2.10;;
42586;SDS011;28216;53.362;-6.288;2023-04-24T13:48:55;10.45;;;2.72;;
42586;SDS011;28216;53.362;-6.288;2023-04-24T13:51:21;14.40;;;8.45;;
42586;SDS011;28216;53.362;-6.288;2023-04-24T13:53:47;6.95;;;2.53;;
42586;SDS011;28216;53.362;-6.288;2023-04-24T13:56:13;11.02;;;5.18;;
42586;SDS011;28216;53.362;-6.288;2023-04-24T13:58:39;9.75;;;5.85;;
42586;SDS011;28216;53.362;-6.288;2023-04-24T14:01:04;11.90;;;7.28;;
42586;SDS011;28216;53.362;-6.288;2023-04-24T14:03:30;16.30;;;8.35;;
42586;SDS011;28216;53.362;-6.288;2023-04-24T14:05:55;8.68;;;3.58;;
42586;SDS011;28216;53.362;-6.288;2023-04-24T14:08:21;6.50;;;3.10;;
42586;SDS011;28216;53.362;-6.288;2023-04-24T14:10:47;5.80;;;2.40;;
42586;SDS011;28216;53.362;-6.288;2023-04-24T14:13:12;8.27;;;2.90;;
42586;SDS011;28216;53.362;-6.288;2023-04-24T14:15:38;7.65;;;2.03;;
42586;SDS011;28216;53.362;-6.288;2023-04-24T14:18:04;6.68;;;2.22;;
42586;SDS011;28216;53.362;-6.288;2023-04-24T14:20:30;5.38;;;2.00;;
42586;SDS011;28216;53.362;-6.288;2023-04-24T14:22:55;6.57;;;2.20;;
42586;SDS011;28216;53.362;-6.288;2023-04-24T14:25:24;5.93;;;1.90;;
42586;SDS011;28216;53.362;-6.288;2023-04-24T14:27:49;4.15;;;1.90;;
42586;SDS011;28216;53.362;-6.288;2023-04-24T14:30:16;5.28;;;2.40;;
42586;SDS011;28216;53.362;-6.288;2023-04-24T14:32:41;9.80;;;2.58;;
42586;SDS011;28216;53.362;-6.288;2023-04-24T14:35:07;6.15;;;1.73;;
42586;SDS011;28216;53.362;-6.288;2023-04-24T14:37:33;5.57;;;1.92;;
42586;SDS011;28216;53.362;-6.288;2023-04-24T14:39:58;7.43;;;2.00;;
42586;SDS011;28216;53.362;-6.288;2023-04-24T14:42:24;7.70;;;2.03;;
42586;SDS011;28216;53.362;-6.288;2023-04-24T14:44:49;5.35;;;1.95;;
42586;SDS011;28216;53.362;-6.288;2023-04-24T14:47:15;5.82;;;2.00;;
42586;SDS011;28216;53.362;-6.288;2023-04-24T14:49:42;6.05;;;2.13;;
42586;SDS011;28216;53.362;-6.288;2023-04-24T14:52:08;3.50;;;1.80;;
42586;SDS011;28216;53.362;-6.288;2023-04-24T14:54:35;6.25;;;1.90;;
42586;SDS011;28216;53.362;-6.288;2023-04-24T14:57:00;6.72;;;2.00;;
42586;SDS011;28216;53.362;-6.288;2023-04-24T14:59:27;6.20;;;2.38;;
42586;SDS011;28216;53.362;-6.288;2023-04-24T15:01:53;4.00;;;1.80;;
42586;SDS011;28216;53.362;-6.288;2023-04-24T15:04:22;5.38;;;1.90;;
42586;SDS011;28216;53.362;-6.288;2023-04-24T15:06:51;4.85;;;1.90;;
42586;SDS011;28216;53.362;-6.288;2023-04-24T15:09:23;4.63;;;2.05;;
42586;SDS011;28216;53.362;-6.288;2023-04-24T15:11:50;6.13;;;2.13;;
42586;SDS011;28216;53.362;-6.288;2023-04-24T15:14:16;4.75;;;1.60;;
42586;SDS011;28216;53.362;-6.288;2023-04-24T15:16:42;4.68;;;1.95;;